IU1JVO-13 Weather Reports


Display with metric or nautical units.
time (UTC)temp
F
wind
direction
speed
MPH
gust
MPH
rain 1hr
in
rain 24hr
in
rain mn
in
humidity
%
barometer
mb
20240527144016 58 270 1.0 2.0 0.23 0.44 0.42 92 1020.9
20240527143017 59 262 0.0 2.0 0.23 0.41 0.39 92 1021.0
20240527142016 59 248 1.0 3.0 0.24 0.37 0.35 92 1021.0
20240527141015 59 244 1.0 4.0 0.22 0.32 0.30 91 1020.9
20240527140016 59 250 1.0 4.0 0.20 0.28 0.26 90 1021.0
20240527135015 59 299 0.0 1.0 0.19 0.24 0.23 90 1020.9
20240527134016 59 259 0.0 1.0 0.17 0.21 0.19 89 1020.8
20240527133016 60 193 0.0 3.0 0.14 0.18 0.16 89 1020.9
20240527132015 60 259 1.0 3.0 0.09 0.13 0.11 89 1020.7
20240527131015 60 270 1.0 5.0 0.06 0.10 0.08 88 1020.5
20240527130016 61 248 2.0 5.0 0.04 0.08 0.06 86 1020.5
20240527125015 62 262 2.0 5.0 0.02 0.06 0.03 81 1020.4
20240527124016 63 244 3.0 5.0 0.00 0.04 0.02 77 1020.5
20240527123016 64 241 2.0 5.0 0.00 0.04 0.02 75 1020.5
20240527122017 64 239 1.0 4.0 0.00 0.04 0.02 75 1020.6
20240527121016 64 256 2.0 4.0 0.00 0.04 0.02 75 1020.7
20240527120015 63 52 1.0 4.0 0.00 0.04 0.02 76 1020.7
20240527115016 63 348 1.0 5.0 0.00 0.04 0.02 75 1020.8
20240527114017 63 325 2.0 7.0 0.00 0.04 0.02 75 1020.8
20240527113016 63 356 4.0 7.0 0.00 0.04 0.02 75 1020.9
20240527112017 64 269 1.0 5.0 0.00 0.04 0.02 76 1020.9
20240527111018 64 84 1.0 4.0 0.00 0.04 0.02 77 1021.0
20240527110017 64 69 1.0 4.0 0.00 0.04 0.02 77 1021.3
20240527105017 64 102 1.0 4.0 0.00 0.04 0.02 79 1021.3
20240527104016 64 135 0.0 3.0 0.00 0.04 0.02 78 1021.3
20240527103015 64 43 1.0 3.0 0.00 0.04 0.02 78 1021.4
20240527102015 64 131 0.0 2.0 0.00 0.04 0.02 76 1021.6
20240527101016 64 105 0.0 3.0 0.00 0.04 0.02 79 1021.6
20240527100016 63 135 1.0 3.0 0.00 0.04 0.02 80 1021.6
20240527095016 63 117 1.0 3.0 0.00 0.04 0.02 80 1021.7
20240527094015 63 122 0.0 2.0 0.00 0.04 0.02 80 1021.7
20240527093016 62 121 0.0 5.0 0.00 0.04 0.02 80 1021.4
20240527092015 62 127 1.0 5.0 0.00 0.04 0.02 83 1021.4
20240527091016 62 102 1.0 4.0 0.00 0.04 0.02 85 1021.4
20240527090017 62 97 1.0 4.0 0.00 0.04 0.02 84 1021.6
20240527085015 62 152 0.0 2.0 0.00 0.04 0.02 82 1021.4
20240527084017 62 226 0.0 2.0 0.00 0.04 0.02 82 1021.6
20240527083017 62 226 0.0 2.0 0.00 0.04 0.02 82 1021.6
20240527082013 61 225 0.0 2.0 0.00 0.04 0.02 82 1021.4
20240527081010 61 237 0.0 1.0 0.00 0.04 0.02 84 1021.6
20240527080010 60 239 0.0 1.0 0.00 0.04 0.02 87 1021.6
20240527075008 60 245 0.0 1.0 0.00 0.04 0.02 87 1021.6
20240527074006 60 246 0.0 3.0 0.00 0.04 0.02 88 1021.7
20240527073006 60 246 1.0 3.0 0.00 0.04 0.02 88 1021.7
20240527072005 60 210 0.0 1.0 0.00 0.04 0.02 88 1021.6
20240527071006 60 279 0.0 1.0 0.00 0.04 0.02 88 1021.6
20240527070006 59 279 0.0 1.0 0.00 0.04 0.02 89 1021.6
20240527065004 59 279 0.0 2.0 0.00 0.04 0.02 89 1021.7
20240527064001 58 275 1.0 2.0 0.00 0.04 0.02 90 1021.6
20240527063002 59 154 0.0 2.0 0.00 0.04 0.02 90 1021.7
20240527062002 59 135 0.0 1.0 0.00 0.04 0.02 89 1021.7
20240527061001 59 124 0.0 3.0 0.00 0.04 0.02 89 1021.6
20240527060000 59 94 0.0 3.0 0.00 0.04 0.02 88 1021.4
20240527055001 58 239 0.0 1.0 0.00 0.04 0.02 89 1021.4
20240527054001 58 239 0.0 0.0 0.00 0.04 0.02 89 1021.3
20240527053003 58 239 0.0 0.0 0.00 0.04 0.02 90 1021.2
20240527051958 58 239 0.0 1.0 0.00 0.04 0.02 90 1021.1
20240527050958 58 239 0.0 2.0 0.00 0.04 0.02 90 1021.0
20240527045956 58 243 0.0 2.0 0.00 0.04 0.02 90 1020.9
20240527044956 58 246 0.0 2.0 0.00 0.04 0.02 89 1021.0
20240527043957 59 113 0.0 2.0 0.00 0.04 0.02 89 1021.1
20240527042956 58 99 0.0 3.0 0.00 0.04 0.02 88 1021.2
20240527041955 58 122 1.0 3.0 0.00 0.04 0.02 89 1021.0
20240527040956 58 215 0.0 1.0 0.00 0.04 0.02 90 1020.9
20240527035955 58 261 0.0 3.0 0.01 0.04 0.02 90 1020.7
20240527034956 58 255 0.0 3.0 0.01 0.04 0.02 89 1020.7
20240527033956 59 302 0.0 1.0 0.01 0.04 0.02 88 1020.9
20240527032957 58 297 0.0 1.0 0.01 0.04 0.02 89 1020.8
20240527031956 58 285 0.0 1.0 0.01 0.04 0.02 90 1020.9
20240527030956 58 194 0.0 1.0 0.01 0.04 0.02 90 1020.8
20240527025955 58 140 0.0 1.0 0.01 0.03 0.01 90 1020.9
20240527024955 58 143 0.0 1.0 0.01 0.03 0.01 90 1020.9
20240527023955 58 143 0.0 1.0 0.01 0.03 0.01 89 1021.0
20240527022955 58 144 0.0 1.0 0.01 0.03 0.01 89 1021.0
20240527021956 59 160 0.0 1.0 0.01 0.03 0.01 89 1021.1
20240527020956 59 91 0.0 1.0 0.01 0.03 0.01 88 1021.1
20240527015955 59 17 0.0 1.0 0.00 0.02 0.00 87 1021.3
20240527014955 59 16 0.0 1.0 0.00 0.02 0.00 87 1021.1
20240527013956 59 16 0.0 2.0 0.00 0.02 0.00 86 1021.6
20240527012954 59 14 0.0 2.0 0.00 0.02 0.00 86 1021.7
20240527011953 59 196 0.0 1.0 0.00 0.02 0.00 87 1021.4
20240527010953 59 310 0.0 1.0 0.00 0.02 0.00 87 1021.4
20240527005952 59 253 0.0 1.0 0.00 0.02 0.00 87 1021.4
20240527004951 59 316 0.0 3.0 0.00 0.02 0.00 86 1021.4
20240527003951 59 259 0.0 3.0 0.00 0.02 0.00 85 1021.9
20240527002951 59 61 0.0 3.0 0.00 0.02 0.00 87 1021.8
20240527001951 59 302 0.0 2.0 0.00 0.02 0.00 87 1021.9
20240527000951 60 347 0.0 2.0 0.00 0.02 0.00 87 1022.0
20240526235951 60 344 0.0 2.0 0.00 0.02 0.00 87 1022.2
20240526234951 60 257 0.0 2.0 0.00 0.02 0.00 87 1022.3
20240526233952 60 177 0.0 4.0 0.00 0.02 0.00 86 1022.5
20240526232951 61 255 1.0 4.0 0.00 0.02 0.00 85 1022.5
20240526231952 61 341 0.0 5.0 0.00 0.02 0.00 83 1022.5
20240526230950 62 289 2.0 5.0 0.00 0.02 0.00 81 1022.5
20240526225955 61 276 1.0 3.0 0.00 0.02 0.00 85 1022.4
20240526224950 61 157 0.0 3.0 0.00 0.02 0.00 86 1022.4
20240526223951 61 296 0.0 4.0 0.00 0.02 0.00 85 1022.3
20240526222949 61 282 1.0 4.0 0.00 0.02 0.00 84 1022.5
20240526221947 61 267 2.0 4.0 0.02 0.02 0.00 84 1022.5
20240526220948 61 293 1.0 6.0 0.02 0.02 0.00 84 1022.5
20240526215947 61 300 1.0 6.0 0.02 0.02 0.02 83 1022.6
20240526214947 62 319 1.0 6.0 0.02 0.02 0.02 81 1022.5
20240526213946 62 355 2.0 4.0 0.02 0.02 0.02 80 1022.5
20240526212945 63 267 0.0 3.0 0.02 0.02 0.02 79 1022.4
20240526211947 65 266 0.0 2.0 0.00 0.00 0.00 75 1022.5
20240526210945 65 261 0.0 2.0 0.00 0.00 0.00 69 1022.4
20240526205943 64 167 0.0 0.0 0.00 0.00 0.00 73 1022.3
20240526204943 64 167 0.0 1.0 0.00 0.00 0.00 73 1022.3
20240526203944 64 162 0.0 1.0 0.00 0.00 0.00 73 1022.2
20240526202945 65 11 0.0 0.0 0.00 0.00 0.00 72 1022.1
20240526202316 65 111 0.0 1.0 0.00 0.00 0.00 72 1022.1
20240526201316 65 201 0.0 1.0 0.00 0.00 0.00 71 1022.0
20240526200314 66 343 0.0 1.0 0.00 0.00 0.00 69 1022.1
20240526195315 66 299 0.0 1.0 0.00 0.00 0.00 68 1022.0
20240526194315 66 345 0.0 1.0 0.00 0.00 0.00 68 1022.0
20240526193313 67 2 0.0 1.0 0.00 0.00 0.00 65 1021.7
20240526192313 67 2 0.0 1.0 0.00 0.00 0.00 67 1021.6
20240526191312 67 354 0.0 3.0 0.00 0.00 0.00 64 1021.6
20240526190311 67 351 1.0 3.0 0.00 0.00 0.00 64 1021.6
20240526185310 67 97 0.0 2.0 0.00 0.00 0.00 64 1021.4
20240526184311 68 104 0.0 1.0 0.00 0.00 0.00 65 1021.2
20240526183312 68 130 0.0 3.0 0.00 0.00 0.00 62 1021.3
20240526182311 69 157 0.0 3.0 0.00 0.00 0.00 60 1021.3
20240526181312 69 352 0.0 4.0 0.00 0.00 0.00 60 1021.1
20240526180311 70 256 0.0 5.0 0.00 0.00 0.00 57 1021.2
20240526175310 70 15 1.0 5.0 0.00 0.00 0.00 56 1021.0
20240526174313 70 50 1.0 6.0 0.00 0.00 0.00 56 1020.9
20240526173312 70 59 2.0 9.0 0.00 0.00 0.00 55 1020.8
20240526172312 70 26 4.0 9.0 0.00 0.00 0.00 55 1020.8
20240526171312 70 22 4.0 9.0 0.00 0.00 0.00 56 1020.7
20240526170312 70 60 2.0 6.0 0.00 0.00 0.00 56 1020.7
20240526165310 70 26 2.0 9.0 0.00 0.00 0.00 58 1020.5
20240526164311 71 19 2.0 9.0 0.00 0.00 0.00 57 1020.6
20240526163311 71 51 3.0 11.0 0.00 0.00 0.00 56 1020.6
20240526162311 71 66 3.0 11.0 0.00 0.00 0.00 56 1020.5
20240526161311 72 70 3.0 8.0 0.00 0.00 0.00 55 1020.5
20240526160312 73 8 1.0 6.0 0.00 0.00 0.00 55 1020.5
20240526155312 73 100 2.0 7.0 0.00 0.00 0.00 55 1020.2
20240526154312 72 100 2.0 7.0 0.00 0.00 0.00 56 1020.2
20240526153311 72 86 2.0 5.0 0.00 0.00 0.00 56 1020.2
20240526152311 72 154 1.0 7.0 0.00 0.00 0.00 56 1020.2
20240526151311 72 79 2.0 7.0 0.00 0.00 0.00 57 1020.1
20240526150310 73 130 2.0 8.0 0.00 0.00 0.00 56 1020.2
20240526145311 74 144 2.0 8.0 0.00 0.00 0.00 55 1020.2